Robles del Rio, California
Current Conditions -  °F | °C
As of 1:54 AM on Sunday 21 Dec 2014 (Local Time) from KMRY Reporting Station
Overcast Overcast  
Wind Chill: 58°   Ceiling: 1400
Heat Index: 58°   Visibility: 9mi
Dew Point: 51°   Wind: 0mph
Humidity: 78%   Direction: NA
Pressure: 30.28"   Gusts: NA
Location:  36.407°N, 121.657°W
Report Text: KMRY 210954Z AUTO 00000KT 9SM OVC014 14/11 A3028 RMK AO2 SLP265 T01440106
Loading
Personal Weather Stations






























Interactive Weather Map New forecast layout! Learn more

10-Day Weather Forecast

Advertisements
Track Severe Weather on mobile